createdAt,value
2023-02-13T00:01:43.606Z,20.10
2023-02-13T00:06:47.980Z,17.00
2023-02-13T00:11:52.230Z,17.80
2023-02-13T00:16:55.042Z,19.90
2023-02-13T00:21:58.019Z,19.20
2023-02-13T00:27:00.954Z,18.70
2023-02-13T00:32:04.216Z,19.80
2023-02-13T00:37:08.691Z,19.40
2023-02-13T00:42:11.496Z,19.10
2023-02-13T00:47:15.037Z,18.90
2023-02-13T00:52:17.946Z,17.10
2023-02-13T00:57:20.838Z,18.30
2023-02-13T01:02:23.857Z,19.60
2023-02-13T01:07:26.849Z,20.20
2023-02-13T01:12:29.863Z,19.40
2023-02-13T01:17:32.774Z,19.50
2023-02-13T01:22:35.799Z,18.80
2023-02-13T01:27:38.673Z,18.70
2023-02-13T01:32:42.184Z,17.80
2023-02-13T01:37:45.441Z,19.70
2023-02-13T01:42:48.282Z,19.80
2023-02-13T01:48:07.627Z,20.40
2023-02-13T01:53:24.178Z,19.60
2023-02-13T01:58:31.214Z,19.50
2023-02-13T02:03:47.748Z,19.40
2023-02-13T02:08:50.578Z,18.90
2023-02-13T02:13:53.413Z,17.80
2023-02-13T02:18:56.258Z,19.00
2023-02-13T02:24:21.469Z,19.40
2023-02-13T02:29:55.198Z,17.40
2023-02-13T02:35:37.371Z,17.20
2023-02-13T02:41:42.911Z,14.00
2023-02-13T02:47:58.191Z,16.10
2023-02-13T02:53:23.015Z,15.80
2023-02-13T02:58:49.921Z,16.50
2023-02-13T03:04:14.418Z,14.80
2023-02-13T03:09:48.862Z,16.40
2023-02-13T03:14:53.434Z,15.60
2023-02-13T03:20:31.414Z,17.00
2023-02-13T03:25:45.992Z,15.50
2023-02-13T03:31:32.097Z,16.30
2023-02-13T03:37:08.164Z,17.80
2023-02-13T03:42:52.317Z,16.80
2023-02-13T03:47:57.047Z,16.10
2023-02-13T03:53:09.486Z,16.10
2023-02-13T03:58:37.564Z,16.00
2023-02-13T04:03:45.870Z,14.90
2023-02-13T04:08:48.859Z,15.50
2023-02-13T04:14:04.472Z,15.80
2023-02-13T04:19:07.619Z,14.70
2023-02-13T04:24:10.679Z,15.30
2023-02-13T04:29:13.525Z,14.60
2023-02-13T04:34:16.562Z,15.60
2023-02-13T04:39:19.573Z,15.20
2023-02-13T04:44:22.839Z,14.90
2023-02-13T04:49:25.685Z,16.30
2023-02-13T04:54:28.498Z,16.30
2023-02-13T04:59:31.370Z,15.60
2023-02-13T05:04:34.320Z,16.20
2023-02-13T05:09:37.271Z,16.00
2023-02-13T05:14:40.236Z,16.90
2023-02-13T05:19:43.076Z,16.90
2023-02-13T05:24:45.975Z,16.20
2023-02-13T05:29:49.085Z,16.50
2023-02-13T05:34:52.117Z,15.90
2023-02-13T05:39:55.023Z,16.00
2023-02-13T05:44:57.989Z,17.20
2023-02-13T05:50:00.964Z,16.40
2023-02-13T05:55:07.279Z,16.10
2023-02-13T06:00:11.264Z,15.20
2023-02-13T06:05:15.213Z,15.70
2023-02-13T06:10:18.246Z,15.60
2023-02-13T06:15:21.815Z,12.00
2023-02-13T06:20:30.581Z,14.50
2023-02-13T06:25:36.351Z,13.30
2023-02-13T06:30:39.355Z,14.40
2023-02-13T06:35:42.684Z,12.00
2023-02-13T06:40:49.291Z,15.30
2023-02-13T06:45:54.062Z,14.40
2023-02-13T06:50:57.639Z,13.90
2023-02-13T06:56:05.086Z,14.60
2023-02-13T07:01:08.252Z,13.50
2023-02-13T07:06:11.228Z,13.40
2023-02-13T07:11:22.618Z,13.20
2023-02-13T07:16:27.717Z,13.20
2023-02-13T07:21:31.873Z,13.40
2023-02-13T07:26:34.750Z,11.40
2023-02-13T07:31:37.787Z,11.80
2023-02-13T07:36:40.733Z,11.10
2023-02-13T07:41:43.733Z,9.90
2023-02-13T07:46:46.677Z,9.40
2023-02-13T07:51:49.658Z,9.40
2023-02-13T07:56:52.707Z,10.10
2023-02-13T08:01:56.463Z,9.40
2023-02-13T08:06:59.337Z,8.60
2023-02-13T08:12:02.230Z,16.30
2023-02-13T08:17:05.157Z,18.10
2023-02-13T08:22:08.052Z,13.20
2023-02-13T08:27:14.482Z,8.70
2023-02-13T08:32:18.218Z,7.90
2023-02-13T08:37:21.160Z,7.70
2023-02-13T08:42:25.090Z,7.40
2023-02-13T08:47:27.910Z,6.50
2023-02-13T08:52:30.840Z,7.30
2023-02-13T08:57:33.826Z,5.50
2023-02-13T09:02:36.971Z,5.60
2023-02-13T09:07:39.816Z,4.90
2023-02-13T09:12:44.666Z,4.10
2023-02-13T09:17:47.898Z,5.20
2023-02-13T09:22:50.853Z,5.20
2023-02-13T09:27:53.739Z,5.60
2023-02-13T09:32:56.655Z,5.80
2023-02-13T09:38:00.846Z,6.20
2023-02-13T09:43:18.698Z,5.80
2023-02-13T09:48:32.692Z,5.30
2023-02-13T09:53:40.129Z,5.70
2023-02-13T09:58:55.417Z,5.90
2023-02-13T10:04:21.079Z,5.80
2023-02-13T10:09:33.698Z,5.40
2023-02-13T10:15:51.746Z,5.30
2023-02-13T10:21:00.639Z,6.10
2023-02-13T10:26:20.103Z,6.20
2023-02-13T10:31:23.961Z,6.20
2023-02-13T10:36:38.100Z,7.00
2023-02-13T10:42:25.058Z,6.10
2023-02-13T10:48:07.770Z,6.30
2023-02-13T10:53:31.911Z,6.70
2023-02-13T10:59:06.094Z,6.40
2023-02-13T11:04:15.288Z,6.20
2023-02-13T11:09:18.272Z,7.00
2023-02-13T11:14:26.276Z,7.70
2023-02-13T11:19:33.623Z,7.60
2023-02-13T11:24:36.591Z,8.10
2023-02-13T11:29:57.545Z,7.70
2023-02-13T11:35:39.114Z,7.40
2023-02-13T11:40:53.131Z,6.50
2023-02-13T11:46:27.530Z,6.90
2023-02-13T11:51:53.343Z,6.80
2023-02-13T11:57:11.896Z,7.40
2023-02-13T12:02:21.046Z,7.70
2023-02-13T12:07:27.430Z,7.20
2023-02-13T12:12:55.520Z,7.80
2023-02-13T12:18:22.765Z,8.40
2023-02-13T12:23:54.519Z,7.80
2023-02-13T12:29:12.253Z,8.20
2023-02-13T12:34:37.628Z,8.10
2023-02-13T12:39:51.663Z,8.10
2023-02-13T12:45:40.328Z,7.80
2023-02-13T12:51:11.158Z,7.60
2023-02-13T12:56:59.414Z,6.70
2023-02-13T13:02:42.074Z,7.40
2023-02-13T13:08:20.963Z,6.70
2023-02-13T13:13:55.651Z,8.20
2023-02-13T13:19:10.482Z,7.90
2023-02-13T13:24:38.439Z,7.20
2023-02-13T13:29:48.116Z,6.90
2023-02-13T13:34:51.145Z,7.90
2023-02-13T13:40:14.941Z,8.00
2023-02-13T13:45:28.653Z,7.60
2023-02-13T13:50:35.805Z,6.90
2023-02-13T13:56:07.954Z,7.80
2023-02-13T14:01:31.716Z,8.30
2023-02-13T14:06:50.147Z,7.80
2023-02-13T14:11:54.009Z,7.70
2023-02-13T14:16:58.542Z,7.90
2023-02-13T14:22:19.790Z,7.60
2023-02-13T14:27:34.894Z,8.60
2023-02-13T14:32:38.085Z,8.50
2023-02-13T14:37:58.446Z,7.70
2023-02-13T14:43:17.177Z,7.20
2023-02-13T14:48:20.156Z,7.50
2023-02-13T14:53:54.307Z,7.40
2023-02-13T14:59:17.794Z,6.80
2023-02-13T15:05:02.951Z,6.40
2023-02-13T15:10:32.172Z,6.10
2023-02-13T15:15:36.066Z,6.40
2023-02-13T15:20:41.332Z,7.00
2023-02-13T15:25:44.263Z,7.30
2023-02-13T15:30:59.344Z,6.40
2023-02-13T15:36:05.823Z,6.70
2023-02-13T15:41:37.610Z,6.80
2023-02-13T15:46:40.536Z,5.60
2023-02-13T15:51:43.599Z,6.60
2023-02-13T15:56:46.665Z,7.10
2023-02-13T16:01:50.943Z,5.30
2023-02-13T16:06:56.960Z,5.70
2023-02-13T16:12:28.538Z,5.30
2023-02-13T16:17:39.710Z,5.70
2023-02-13T16:23:00.382Z,5.70
2023-02-13T16:28:12.362Z,5.20
2023-02-13T16:33:16.328Z,5.50
2023-02-13T16:38:34.059Z,5.70
2023-02-13T16:43:54.609Z,5.70
2023-02-13T16:48:57.960Z,5.20
2023-02-13T16:54:11.510Z,5.80
2023-02-13T16:59:46.902Z,5.50
2023-02-13T17:05:12.022Z,5.20
2023-02-13T17:10:29.106Z,5.00
2023-02-13T17:15:32.313Z,5.40
2023-02-13T17:20:36.270Z,6.40
2023-02-13T17:25:39.262Z,5.10
2023-02-13T17:30:42.262Z,5.10
2023-02-13T17:35:45.226Z,4.40
2023-02-13T17:40:48.363Z,6.00
2023-02-13T17:45:51.411Z,4.50
2023-02-13T17:50:54.377Z,4.50
2023-02-13T17:55:58.842Z,4.70
2023-02-13T18:01:02.330Z,4.30
2023-02-13T18:06:06.198Z,4.00
2023-02-13T18:11:12.298Z,4.30
2023-02-13T18:16:15.779Z,4.70
2023-02-13T18:21:22.671Z,4.70
2023-02-13T18:26:25.686Z,4.70
2023-02-13T18:31:30.008Z,4.20
2023-02-13T18:36:33.349Z,4.60
2023-02-13T18:41:37.332Z,4.90
2023-02-13T18:46:43.066Z,4.10
2023-02-13T18:51:45.950Z,4.30
2023-02-13T18:56:49.007Z,4.20
2023-02-13T19:01:51.879Z,4.60
2023-02-13T19:06:54.867Z,4.40
2023-02-13T19:11:57.717Z,4.40
2023-02-13T19:17:00.886Z,4.70
2023-02-13T19:22:03.868Z,4.70
2023-02-13T19:27:06.991Z,4.80
2023-02-13T19:32:10.035Z,5.10
2023-02-13T19:37:12.929Z,4.70
2023-02-13T19:42:17.782Z,4.60
2023-02-13T19:47:20.615Z,5.00
2023-02-13T19:52:23.513Z,4.90
2023-02-13T19:57:26.378Z,5.30
2023-02-13T20:02:29.438Z,5.40
2023-02-13T20:07:32.559Z,4.90
2023-02-13T20:12:37.851Z,4.80
2023-02-13T20:17:40.839Z,5.30
2023-02-13T20:22:48.225Z,5.00
2023-02-13T20:27:51.415Z,5.00
2023-02-13T20:32:54.348Z,4.60
2023-02-13T20:37:58.968Z,4.90
2023-02-13T20:43:01.883Z,4.80
2023-02-13T20:48:04.837Z,4.90
2023-02-13T20:53:08.710Z,4.50
2023-02-13T20:58:11.878Z,4.40
2023-02-13T21:03:17.131Z,4.60
2023-02-13T21:08:20.042Z,4.20
2023-02-13T21:13:22.865Z,4.30
2023-02-13T21:18:25.706Z,4.60
2023-02-13T21:23:28.653Z,3.80
2023-02-13T21:28:31.811Z,4.90
2023-02-13T21:33:35.820Z,4.50
2023-02-13T21:38:39.822Z,4.90
2023-02-13T21:43:46.807Z,4.90
2023-02-13T21:48:55.294Z,4.40
2023-02-13T21:53:58.659Z,4.20
2023-02-13T21:59:02.116Z,4.50
2023-02-13T22:04:07.185Z,4.80
2023-02-13T22:09:16.435Z,4.30
2023-02-13T22:14:19.469Z,4.90
2023-02-13T22:19:22.489Z,4.20
2023-02-13T22:24:25.445Z,3.70
2023-02-13T22:29:28.360Z,4.00
2023-02-13T22:34:40.342Z,4.40
2023-02-13T22:39:43.281Z,5.10
2023-02-13T22:44:46.208Z,5.20
2023-02-13T22:49:49.077Z,4.70
2023-02-13T22:54:52.384Z,5.00
2023-02-13T22:59:55.365Z,5.10
2023-02-13T23:04:59.421Z,4.90
2023-02-13T23:10:05.219Z,5.40
2023-02-13T23:15:11.203Z,4.40
2023-02-13T23:20:14.403Z,4.50
2023-02-13T23:25:17.623Z,4.70
2023-02-13T23:30:20.764Z,4.30
2023-02-13T23:35:24.074Z,4.10
2023-02-13T23:40:27.047Z,4.60
2023-02-13T23:45:32.564Z,5.50
2023-02-13T23:50:36.063Z,4.50
2023-02-13T23:55:39.012Z,4.50
